createdAt,value
2022-10-15T00:02:01.053Z,15.22
2022-10-15T00:07:03.518Z,15.18
2022-10-15T00:12:06.319Z,15.02
2022-10-15T00:17:08.939Z,15.18
2022-10-15T00:22:11.336Z,15.04
2022-10-15T00:27:13.529Z,15.15
2022-10-15T00:32:16.363Z,15.15
2022-10-15T00:37:18.931Z,15.13
2022-10-15T00:42:21.367Z,15.05
2022-10-15T00:47:35.247Z,15.08
2022-10-15T00:52:48.918Z,15.13
2022-10-15T00:57:51.890Z,15.17
2022-10-15T01:02:54.150Z,15.18
2022-10-15T01:07:56.428Z,15.05
2022-10-15T01:13:33.340Z,15.14
2022-10-15T01:18:46.407Z,15.13
2022-10-15T01:24:27.093Z,15.13
2022-10-15T01:29:46.866Z,15.15
2022-10-15T01:34:51.916Z,15.24
2022-10-15T01:40:17.981Z,15.15
2022-10-15T01:45:30.131Z,15.21
2022-10-15T01:50:35.443Z,15.23
2022-10-15T01:55:41.851Z,15.35
2022-10-15T02:00:44.588Z,15.28
2022-10-15T02:05:56.284Z,15.34
2022-10-15T02:11:21.371Z,15.35
2022-10-15T02:16:47.478Z,15.36
2022-10-15T02:21:59.908Z,15.47
2022-10-15T02:27:05.062Z,15.50
2022-10-15T02:32:09.487Z,15.56
2022-10-15T02:37:12.766Z,15.35
2022-10-15T02:42:18.213Z,15.61
2022-10-15T02:47:20.559Z,15.51
2022-10-15T02:52:23.088Z,15.60
2022-10-15T02:57:25.872Z,15.67
2022-10-15T03:02:28.494Z,15.60
2022-10-15T03:07:31.086Z,15.64
2022-10-15T03:12:33.910Z,15.73
2022-10-15T03:17:36.149Z,15.73
2022-10-15T03:22:38.797Z,15.73
2022-10-15T03:27:41.398Z,15.71
2022-10-15T03:32:44.379Z,15.70
2022-10-15T03:37:46.738Z,15.45
2022-10-15T03:42:53.023Z,15.75
2022-10-15T03:47:56.223Z,15.66
2022-10-15T03:52:58.675Z,15.75
2022-10-15T03:58:01.242Z,15.74
2022-10-15T04:03:03.874Z,15.65
2022-10-15T04:08:06.470Z,15.65
2022-10-15T04:13:08.755Z,15.69
2022-10-15T04:18:11.719Z,15.70
2022-10-15T04:23:13.991Z,15.70
2022-10-15T04:28:16.452Z,15.68
2022-10-15T04:33:18.737Z,15.60
2022-10-15T04:38:21.156Z,15.71
2022-10-15T04:43:23.402Z,15.76
2022-10-15T04:48:26.447Z,15.69
2022-10-15T04:53:28.764Z,15.72
2022-10-15T04:58:35.949Z,15.49
2022-10-15T05:03:41.077Z,15.67
2022-10-15T05:08:47.506Z,15.43
2022-10-15T05:13:50.618Z,15.55
2022-10-15T05:18:56.696Z,15.15
2022-10-15T05:24:00.016Z,15.35
2022-10-15T05:29:02.515Z,15.29
2022-10-15T05:34:09.523Z,15.16
2022-10-15T05:39:12.763Z,15.21
2022-10-15T05:44:15.014Z,15.17
2022-10-15T05:49:19.514Z,15.32
2022-10-15T05:54:21.657Z,15.32
2022-10-15T05:59:23.865Z,15.30
2022-10-15T06:04:26.284Z,15.32
2022-10-15T06:09:28.834Z,15.37
2022-10-15T06:14:31.728Z,15.46
2022-10-15T06:19:34.031Z,15.45
2022-10-15T06:24:36.352Z,15.47
2022-10-15T06:29:38.510Z,15.59
2022-10-15T06:34:40.835Z,15.64
2022-10-15T06:39:43.094Z,15.69
2022-10-15T06:44:45.285Z,15.69
2022-10-15T06:49:47.594Z,15.78
2022-10-15T06:54:50.136Z,15.78
2022-10-15T06:59:52.889Z,15.69
2022-10-15T07:04:55.120Z,15.67
2022-10-15T07:09:57.435Z,15.97
2022-10-15T07:14:59.785Z,16.08
2022-10-15T07:20:02.129Z,16.05
2022-10-15T07:25:04.547Z,16.13
2022-10-15T07:30:08.694Z,16.23
2022-10-15T07:35:11.181Z,16.26
2022-10-15T07:40:13.614Z,16.34
2022-10-15T07:45:16.092Z,16.38
2022-10-15T07:50:19.736Z,16.45
2022-10-15T07:55:22.369Z,16.62
2022-10-15T08:00:25.138Z,16.66
2022-10-15T08:05:27.554Z,16.75
2022-10-15T08:10:29.994Z,16.78
2022-10-15T08:15:33.675Z,16.90
2022-10-15T08:20:36.851Z,17.05
2022-10-15T08:25:39.134Z,17.00
2022-10-15T08:30:41.573Z,17.22
2022-10-15T08:35:44.623Z,17.38
2022-10-15T08:40:52.923Z,17.63
2022-10-15T08:46:00.584Z,17.72
2022-10-15T08:51:18.878Z,17.81
2022-10-15T08:56:44.073Z,17.96
2022-10-15T09:01:46.272Z,18.06
2022-10-15T09:06:55.004Z,17.80
2022-10-15T09:12:20.235Z,17.99
2022-10-15T09:17:26.513Z,18.00
2022-10-15T09:22:31.599Z,17.88
2022-10-15T09:27:36.254Z,18.01
2022-10-15T09:33:04.728Z,17.94
2022-10-15T09:38:36.253Z,18.10
2022-10-15T09:43:41.388Z,18.12
2022-10-15T09:49:21.585Z,18.14
2022-10-15T09:54:28.130Z,18.23
2022-10-15T10:04:40.009Z,18.29
2022-10-15T10:09:54.546Z,18.30
2022-10-15T10:15:03.867Z,18.21
2022-10-15T10:20:18.187Z,18.11
2022-10-15T10:25:42.872Z,18.19
2022-10-15T10:30:57.065Z,18.14
2022-10-15T10:36:00.640Z,18.14
2022-10-15T10:41:11.052Z,18.14
2022-10-15T10:46:16.367Z,18.21
2022-10-15T10:51:27.427Z,18.28
2022-10-15T10:56:38.185Z,18.29
2022-10-15T11:01:40.639Z,18.39
2022-10-15T11:07:04.127Z,18.48
2022-10-15T11:12:38.474Z,18.47
2022-10-15T11:18:05.221Z,18.55
2022-10-15T11:23:25.097Z,18.65
2022-10-15T11:28:52.180Z,18.70
2022-10-15T11:34:22.605Z,18.88
2022-10-15T11:39:34.094Z,19.13
2022-10-15T11:45:04.179Z,19.31
2022-10-15T11:50:30.905Z,19.50
2022-10-15T11:55:58.601Z,19.45
2022-10-15T12:01:27.577Z,19.60
2022-10-15T12:06:37.778Z,19.50
2022-10-15T12:11:43.279Z,19.50
2022-10-15T12:17:00.677Z,19.44
2022-10-15T12:22:12.252Z,19.34
2022-10-15T12:27:30.642Z,19.37
2022-10-15T12:32:46.988Z,19.36
2022-10-15T12:37:50.707Z,19.30
2022-10-15T12:43:00.361Z,19.36
2022-10-15T12:48:05.262Z,19.32
2022-10-15T12:53:26.402Z,19.25
2022-10-15T12:58:33.447Z,19.22
2022-10-15T13:03:40.340Z,19.16
2022-10-15T13:08:50.064Z,19.10
2022-10-15T13:13:58.273Z,19.11
2022-10-15T13:19:01.011Z,18.98
2022-10-15T13:24:03.274Z,19.04
2022-10-15T13:29:05.483Z,19.07
2022-10-15T13:34:16.726Z,18.84
2022-10-15T13:39:26.477Z,18.85
2022-10-15T13:44:29.328Z,18.95
2022-10-15T13:49:31.672Z,19.00
2022-10-15T13:54:34.035Z,19.00
2022-10-15T13:59:36.273Z,18.91
2022-10-15T14:04:38.832Z,19.03
2022-10-15T14:09:42.728Z,18.99
2022-10-15T14:14:49.916Z,18.97
2022-10-15T14:20:26.891Z,18.94
2022-10-15T14:25:27.140Z,18.93
2022-10-15T14:30:33.731Z,18.96
2022-10-15T14:35:37.864Z,18.96
2022-10-15T14:40:40.136Z,18.88
2022-10-15T14:45:53.765Z,18.91
2022-10-15T14:51:00.417Z,18.82
2022-10-15T14:56:07.664Z,18.68
2022-10-15T15:01:16.544Z,18.83
2022-10-15T15:06:19.294Z,18.65
2022-10-15T15:11:25.850Z,18.73
2022-10-15T15:16:28.449Z,18.56
2022-10-15T15:21:30.627Z,18.48
2022-10-15T15:26:33.330Z,18.31
2022-10-15T15:31:35.724Z,18.33
2022-10-15T15:36:37.901Z,18.21
2022-10-15T15:41:40.089Z,18.32
2022-10-15T15:46:42.970Z,18.08
2022-10-15T15:51:45.339Z,18.10
2022-10-15T15:56:47.666Z,18.14
2022-10-15T16:01:50.347Z,18.12
2022-10-15T16:06:52.978Z,18.07
2022-10-15T16:11:57.170Z,17.98
2022-10-15T16:16:59.828Z,17.86
2022-10-15T16:22:02.337Z,17.90
2022-10-15T16:27:04.615Z,17.91
2022-10-15T16:32:06.975Z,17.88
2022-10-15T16:37:09.382Z,17.78
2022-10-15T16:42:14.258Z,17.66
2022-10-15T16:47:16.843Z,17.48
2022-10-15T16:52:19.102Z,17.54
2022-10-15T16:57:21.306Z,17.37
2022-10-15T17:02:23.849Z,17.29
2022-10-15T17:07:26.920Z,17.12
2022-10-15T17:12:29.514Z,17.06
2022-10-15T17:17:32.046Z,17.08
2022-10-15T17:22:35.582Z,16.92
2022-10-15T17:27:38.077Z,16.84
2022-10-15T17:32:40.372Z,16.75
2022-10-15T17:37:42.719Z,16.60
2022-10-15T17:42:45.066Z,16.59
2022-10-15T17:47:57.542Z,16.55
2022-10-15T17:53:01.969Z,16.48
2022-10-15T17:58:04.545Z,16.29
2022-10-15T18:03:06.748Z,16.38
2022-10-15T18:08:10.560Z,16.23
2022-10-15T18:13:14.272Z,16.11
2022-10-15T18:18:18.221Z,16.11
2022-10-15T18:23:21.535Z,16.00
2022-10-15T18:28:23.938Z,15.91
2022-10-15T18:33:27.028Z,15.84
2022-10-15T18:38:30.002Z,15.83
2022-10-15T18:43:32.387Z,15.68
2022-10-15T18:48:34.747Z,15.59
2022-10-15T18:53:38.624Z,15.57
2022-10-15T18:58:45.138Z,15.64
2022-10-15T19:03:50.424Z,15.66
2022-10-15T19:08:52.937Z,15.47
2022-10-15T19:13:58.190Z,15.40
2022-10-15T19:19:00.972Z,15.57
2022-10-15T19:24:04.031Z,15.46
2022-10-15T19:29:06.934Z,15.46
2022-10-15T19:34:09.798Z,15.29
2022-10-15T19:39:15.208Z,15.28
2022-10-15T19:44:25.779Z,15.38
2022-10-15T19:49:28.569Z,15.28
2022-10-15T19:54:30.985Z,15.29
2022-10-15T19:59:33.244Z,14.96
2022-10-15T20:04:35.665Z,15.32
2022-10-15T20:09:38.088Z,15.30
2022-10-15T20:14:40.469Z,15.28
2022-10-15T20:19:42.797Z,15.39
2022-10-15T20:24:45.541Z,15.33
2022-10-15T20:29:47.771Z,15.15
2022-10-15T20:34:50.020Z,15.05
2022-10-15T20:39:52.283Z,15.35
2022-10-15T20:44:54.754Z,15.36
2022-10-15T20:49:57.186Z,15.34
2022-10-15T20:54:59.633Z,15.25
2022-10-15T21:00:01.906Z,15.36
2022-10-15T21:05:04.457Z,15.41
2022-10-15T21:10:07.260Z,15.55
2022-10-15T21:15:09.994Z,15.48
2022-10-15T21:20:12.425Z,15.50
2022-10-15T21:25:15.103Z,15.53
2022-10-15T21:30:17.822Z,15.62
2022-10-15T21:35:20.199Z,15.70
2022-10-15T21:40:22.407Z,15.72
2022-10-15T21:45:25.283Z,15.72
2022-10-15T21:50:27.515Z,15.68
2022-10-15T21:55:30.618Z,15.65
2022-10-15T22:00:33.189Z,15.70
2022-10-15T22:05:35.663Z,15.35
2022-10-15T22:10:38.100Z,15.58
2022-10-15T22:15:40.616Z,15.61
2022-10-15T22:20:42.880Z,15.59
2022-10-15T22:25:46.286Z,15.51
2022-10-15T22:30:48.651Z,15.47
2022-10-15T22:35:50.862Z,15.40
2022-10-15T22:40:57.032Z,15.30
2022-10-15T22:46:00.855Z,15.23
2022-10-15T22:51:05.234Z,15.27
2022-10-15T22:56:12.695Z,15.17
2022-10-15T23:01:18.388Z,15.18
2022-10-15T23:06:22.060Z,15.04
2022-10-15T23:11:27.843Z,15.02
2022-10-15T23:16:32.889Z,15.07
2022-10-15T23:21:38.965Z,14.89
2022-10-15T23:26:42.312Z,14.86
2022-10-15T23:31:44.641Z,14.75
2022-10-15T23:36:47.449Z,14.76
2022-10-15T23:41:50.399Z,14.68
2022-10-15T23:46:52.983Z,14.58
2022-10-15T23:51:55.275Z,14.56
2022-10-15T23:56:57.802Z,14.51
